Talladega, Alabama
Current Conditions -  °F | °C
As of 11:35 AM on Tuesday 21 Oct 2014 (Local Time) from KASN Reporting Station
Clear Clear  
Wind Chill: 73°   Ceiling: Unl
Heat Index: 73°   Visibility: 10mi
Dew Point: 57°   Wind: 0mph
Humidity: 59%   Direction: NA
Pressure: 30.06"   Gusts: NA
Location:  33.43°N, 86.1°W
Report Text: KASN 211635Z AUTO 00000KT 10SM CLR 23/14 A3006 RMK AO2 T02250140
Loading
Personal Weather Stations






























Interactive Weather Map New forecast layout! Learn more

10-Day Weather Forecast

Advertisements
Track Severe Weather on mobile